Time;durP1;ratioP1;P1;durP2;ratioP2;P2;SDS_P1;SDS_P2;PMS_P1;PMS_P2;Temp;Humidity;BMP_temperature;BMP_pressure;BME280_temperature;BME280_humidity;BME280_pressure;Samples;Min_cycle;Max_cycle;Signal;HPM_P1;HPM_P2
2023/03/07 00:01:46;;;;;;;13.33;7.87;;;3.00;99.90;;;;;;4915826;29;20218;-30
2023/03/07 00:04:11;;;;;;;13.90;8.90;;;3.00;99.90;;;;;;4899954;29;20186;-30
2023/03/07 00:06:37;;;;;;;12.77;7.83;;;3.00;99.90;;;;;;4900788;29;20224;-30
2023/03/07 00:09:03;;;;;;;13.97;8.27;;;3.00;99.90;;;;;;4917204;29;20203;-29
2023/03/07 00:11:29;;;;;;;14.23;9.23;;;3.00;99.90;;;;;;4915630;29;20202;-30
2023/03/07 00:13:55;;;;;;;15.23;8.50;;;3.00;99.90;;;;;;4918760;29;20214;-30
2023/03/07 00:16:23;;;;;;;13.70;8.63;;;3.00;99.90;;;;;;4918779;29;20205;-30
2023/03/07 00:18:49;;;;;;;14.17;8.97;;;3.00;99.90;;;;;;4918368;29;20196;-31
2023/03/07 00:21:18;;;;;;;13.37;8.07;;;2.90;99.90;;;;;;4919170;29;20183;-30
2023/03/07 00:23:45;;;;;;;12.60;7.77;;;3.00;99.90;;;;;;4917098;29;20186;-30
2023/03/07 00:26:16;;;;;;;13.17;8.87;;;2.90;99.90;;;;;;4918966;29;20241;-30
2023/03/07 00:28:44;;;;;;;15.00;8.40;;;2.90;99.90;;;;;;4918486;29;20205;-29
2023/03/07 00:31:10;;;;;;;11.80;7.30;;;2.90;99.90;;;;;;4901667;29;20239;-30
2023/03/07 00:33:36;;;;;;;12.80;8.17;;;2.90;99.90;;;;;;4901358;29;20175;-29
2023/03/07 00:36:05;;;;;;;14.47;8.33;;;2.90;99.90;;;;;;4901657;29;20198;-30
2023/03/07 00:38:32;;;;;;;16.63;8.90;;;2.90;99.90;;;;;;4901842;29;20183;-30
2023/03/07 00:41:09;;;;;;;15.33;9.33;;;2.90;99.90;;;;;;4917605;29;20217;-29
2023/03/07 00:43:36;;;;;;;14.70;8.47;;;2.90;99.90;;;;;;4880925;29;20247;-29
2023/03/07 00:46:02;;;;;;;16.97;9.13;;;2.90;99.90;;;;;;4918569;29;20211;-31
2023/03/07 00:48:28;;;;;;;17.07;11.00;;;2.90;99.90;;;;;;4901482;29;20238;-29
2023/03/07 00:50:55;;;;;;;13.93;9.63;;;2.90;99.90;;;;;;4917090;29;20225;-30
2023/03/07 00:53:23;;;;;;;14.90;9.83;;;2.90;99.90;;;;;;4917219;29;20187;-29
2023/03/07 00:56:01;;;;;;;13.90;9.50;;;2.90;99.90;;;;;;4916527;29;20206;-29
2023/03/07 00:58:30;;;;;;;14.13;9.37;;;2.90;99.90;;;;;;4901244;29;20208;-29
2023/03/07 01:00:56;;;;;;;13.23;8.93;;;2.90;99.90;;;;;;4915727;29;20194;-30
2023/03/07 01:03:24;;;;;;;16.97;9.33;;;2.90;99.90;;;;;;4901348;29;20187;-30
2023/03/07 01:05:50;;;;;;;17.83;8.73;;;2.90;99.90;;;;;;4900622;29;20206;-29
2023/03/07 01:08:17;;;;;;;14.23;8.80;;;2.90;99.90;;;;;;4900882;29;20207;-29
2023/03/07 01:10:44;;;;;;;14.63;9.17;;;2.90;99.90;;;;;;4916605;29;20183;-30
2023/03/07 01:13:11;;;;;;;13.77;8.77;;;2.90;99.90;;;;;;4884971;29;20242;-30
2023/03/07 01:15:38;;;;;;;15.50;9.80;;;2.90;99.90;;;;;;4897341;29;20199;-29
2023/03/07 01:18:08;;;;;;;15.43;9.07;;;2.90;99.90;;;;;;4916580;29;20179;-30
2023/03/07 01:20:36;;;;;;;13.73;8.80;;;2.90;99.90;;;;;;4900769;29;20183;-29
2023/03/07 01:23:02;;;;;;;16.57;9.20;;;2.90;99.90;;;;;;4900654;29;20215;-29
2023/03/07 01:25:29;;;;;;;14.67;9.23;;;2.90;99.90;;;;;;4900681;29;20196;-29
2023/03/07 01:27:55;;;;;;;16.00;9.10;;;3.00;99.90;;;;;;4916380;29;20206;-29
2023/03/07 01:30:24;;;;;;;14.77;8.63;;;3.00;99.90;;;;;;4916252;29;20185;-30
2023/03/07 01:32:55;;;;;;;13.23;8.93;;;3.00;99.90;;;;;;4900678;29;20178;-30
2023/03/07 01:35:22;;;;;;;19.63;9.50;;;3.00;99.90;;;;;;4900345;29;20174;-29
2023/03/07 01:37:52;;;;;;;13.63;9.03;;;3.00;99.90;;;;;;4917488;29;20190;-29
2023/03/07 01:40:19;;;;;;;14.27;9.07;;;3.00;99.90;;;;;;4916172;29;20660;-30
2023/03/07 01:42:46;;;;;;;13.37;8.37;;;3.00;99.90;;;;;;4912680;29;20194;-28
2023/03/07 01:45:12;;;;;;;13.37;8.67;;;3.00;99.90;;;;;;4905286;29;20203;-30
2023/03/07 01:47:44;;;;;;;15.53;9.60;;;3.00;99.90;;;;;;4892546;29;20182;-29
2023/03/07 01:50:15;;;;;;;14.43;8.93;;;3.00;99.90;;;;;;4916311;29;20171;-29
2023/03/07 01:52:46;;;;;;;17.70;10.10;;;3.00;99.90;;;;;;4916101;29;20186;-29
2023/03/07 01:55:31;;;;;;;11.73;8.40;;;3.00;99.90;;;;;;4915964;29;20185;-29
2023/03/07 01:58:17;;;;;;;13.10;8.93;;;3.00;99.90;;;;;;4900200;29;20190;-30
2023/03/07 02:00:44;;;;;;;16.30;9.00;;;3.00;99.90;;;;;;4900297;29;20646;-29
2023/03/07 02:03:09;;;;;;;14.00;8.80;;;3.00;99.90;;;;;;4915782;29;20193;-30
2023/03/07 02:05:43;;;;;;;14.17;9.37;;;3.00;99.90;;;;;;4899727;29;20203;-29
2023/03/07 02:08:13;;;;;;;15.53;9.20;;;3.00;99.90;;;;;;4899642;29;20249;-29
2023/03/07 02:10:40;;;;;;;14.97;8.73;;;3.10;99.90;;;;;;4884172;29;20194;-29
2023/03/07 02:13:06;;;;;;;15.67;8.40;;;3.10;99.90;;;;;;4904256;29;20231;-29
2023/03/07 02:15:33;;;;;;;13.70;8.40;;;3.10;99.90;;;;;;4897735;29;20203;-30
2023/03/07 02:17:59;;;;;;;14.40;8.97;;;3.00;99.90;;;;;;4916163;29;20186;-29
2023/03/07 02:20:46;;;;;;;13.37;8.63;;;3.00;99.90;;;;;;4915414;29;20179;-31
2023/03/07 02:23:26;;;;;;;15.90;8.90;;;3.10;99.90;;;;;;4915589;29;20182;-29
2023/03/07 02:26:02;;;;;;;15.23;8.77;;;3.00;99.90;;;;;;4899985;29;20293;-29
2023/03/07 02:28:29;;;;;;;13.03;8.73;;;3.00;99.90;;;;;;4899470;29;20591;-29
2023/03/07 02:31:00;;;;;;;17.47;9.27;;;3.10;99.90;;;;;;4916407;29;20329;-29
2023/03/07 02:33:29;;;;;;;15.13;9.47;;;3.10;99.90;;;;;;4899452;29;20182;-30
2023/03/07 02:36:10;;;;;;;15.33;9.47;;;3.00;99.90;;;;;;4900061;29;20245;-30
2023/03/07 02:38:43;;;;;;;15.27;9.50;;;3.00;99.90;;;;;;4915111;29;20185;-29
2023/03/07 02:41:11;;;;;;;15.33;9.43;;;3.00;99.90;;;;;;4915480;29;20179;-29
2023/03/07 02:43:37;;;;;;;13.43;8.57;;;3.00;99.90;;;;;;4911486;29;20704;-30
2023/03/07 02:46:04;;;;;;;13.73;9.17;;;2.90;99.90;;;;;;4910633;29;20202;-30
2023/03/07 02:48:29;;;;;;;14.10;9.27;;;2.90;99.90;;;;;;4898936;29;20206;-28
2023/03/07 02:50:56;;;;;;;17.53;9.73;;;2.90;99.90;;;;;;4915420;29;20171;-28
2023/03/07 02:53:22;;;;;;;15.90;9.23;;;2.90;99.90;;;;;;4896238;29;20178;-29
2023/03/07 02:55:48;;;;;;;14.83;8.93;;;2.90;99.90;;;;;;4865646;29;20286;-29
2023/03/07 02:58:15;;;;;;;14.63;9.47;;;2.90;99.90;;;;;;4903620;29;20534;-29
2023/03/07 03:00:42;;;;;;;14.97;9.43;;;2.90;99.90;;;;;;4914929;29;20187;-29
2023/03/07 03:03:07;;;;;;;13.80;9.10;;;2.80;99.90;;;;;;4899494;29;20198;-29
2023/03/07 03:05:33;;;;;;;15.73;9.23;;;2.80;99.90;;;;;;4915995;29;20210;-29
2023/03/07 03:07:59;;;;;;;16.23;8.93;;;2.80;99.90;;;;;;4915104;29;20206;-29
2023/03/07 03:10:25;;;;;;;15.60;8.93;;;2.80;99.90;;;;;;4915323;29;20234;-29
2023/03/07 03:12:51;;;;;;;21.67;11.13;;;2.70;99.90;;;;;;4899308;29;20183;-29
2023/03/07 03:15:17;;;;;;;15.30;9.50;;;2.70;99.90;;;;;;4928648;29;20190;-29
2023/03/07 03:17:44;;;;;;;17.30;9.60;;;2.70;99.90;;;;;;4916346;29;20230;-29
2023/03/07 03:20:11;;;;;;;17.43;10.07;;;2.70;99.90;;;;;;4899364;29;20178;-30
2023/03/07 03:22:38;;;;;;;14.17;8.80;;;2.60;99.90;;;;;;4916739;29;20175;-29
2023/03/07 03:25:08;;;;;;;13.37;8.90;;;2.60;99.90;;;;;;4918508;29;20190;-29
2023/03/07 03:27:36;;;;;;;14.57;8.20;;;2.60;99.90;;;;;;4887384;29;20234;-29
2023/03/07 03:30:07;;;;;;;13.63;8.87;;;2.60;99.90;;;;;;4903106;29;20186;-29
2023/03/07 03:32:36;;;;;;;12.40;7.67;;;2.60;99.90;;;;;;4918791;29;20183;-29
2023/03/07 03:35:03;;;;;;;11.17;7.43;;;2.60;99.90;;;;;;4919978;29;20183;-28
2023/03/07 03:37:30;;;;;;;11.27;7.40;;;2.60;99.90;;;;;;4919681;29;20195;-31
2023/03/07 03:39:56;;;;;;;14.83;8.53;;;2.60;99.90;;;;;;4919561;29;20198;-31
2023/03/07 03:42:22;;;;;;;11.93;7.97;;;2.60;99.90;;;;;;4924727;29;20186;-30
2023/03/07 03:44:48;;;;;;;13.17;8.23;;;2.60;99.90;;;;;;4896676;29;20179;-30
2023/03/07 03:47:15;;;;;;;12.87;8.70;;;2.60;99.90;;;;;;4902306;29;20203;-31
2023/03/07 03:49:41;;;;;;;13.60;8.30;;;2.60;99.90;;;;;;4918123;29;20281;-30
2023/03/07 03:52:08;;;;;;;12.23;7.53;;;2.60;99.90;;;;;;4916541;29;20182;-30
2023/03/07 03:54:35;;;;;;;13.53;8.03;;;2.70;99.90;;;;;;4917632;29;20245;-30
2023/03/07 03:57:01;;;;;;;13.30;8.60;;;2.60;99.90;;;;;;4917823;29;20210;-31
2023/03/07 03:59:29;;;;;;;11.90;7.93;;;2.60;99.90;;;;;;4902113;29;20186;-30
2023/03/07 04:01:55;;;;;;;16.23;7.70;;;2.60;99.90;;;;;;4902079;29;20187;-31
2023/03/07 04:04:21;;;;;;;15.47;8.27;;;2.60;99.90;;;;;;4901823;29;20179;-30
2023/03/07 04:06:47;;;;;;;13.83;7.73;;;2.60;99.90;;;;;;4917565;29;20250;-29
2023/03/07 04:09:14;;;;;;;13.07;7.70;;;2.60;99.90;;;;;;4917617;29;20211;-28
2023/03/07 04:11:43;;;;;;;11.80;7.50;;;2.60;99.90;;;;;;4918762;29;20179;-29
2023/03/07 04:14:09;;;;;;;12.40;7.80;;;2.60;99.90;;;;;;4917410;29;20182;-29
2023/03/07 04:16:35;;;;;;;13.50;7.90;;;2.70;99.90;;;;;;4902103;29;20195;-29
2023/03/07 04:19:01;;;;;;;10.60;7.13;;;2.60;99.90;;;;;;4917369;29;20190;-29
2023/03/07 04:21:27;;;;;;;11.93;7.20;;;2.70;99.90;;;;;;4917949;29;20193;-29
2023/03/07 04:23:57;;;;;;;12.97;8.00;;;2.60;99.90;;;;;;4901237;29;20278;-29
2023/03/07 04:26:26;;;;;;;19.33;10.20;;;2.60;99.90;;;;;;4916983;29;20203;-30
2023/03/07 04:28:52;;;;;;;13.93;8.47;;;2.60;99.90;;;;;;4917149;29;20213;-30
2023/03/07 04:31:44;;;;;;;13.63;7.93;;;2.70;99.90;;;;;;4902331;29;20183;-31
2023/03/07 04:34:11;;;;;;;11.70;7.60;;;2.70;99.90;;;;;;4901209;29;20265;-30
2023/03/07 04:36:36;;;;;;;14.43;7.40;;;2.60;99.90;;;;;;4917058;29;20294;-30
2023/03/07 04:39:03;;;;;;;12.47;7.03;;;2.60;99.90;;;;;;4917014;29;20182;-29
2023/03/07 04:41:29;;;;;;;11.47;7.03;;;2.50;99.90;;;;;;4901213;29;20186;-29
2023/03/07 04:44:19;;;;;;;9.90;6.97;;;2.60;99.90;;;;;;4909484;29;20186;-31
2023/03/07 04:46:45;;;;;;;13.73;8.03;;;2.60;99.90;;;;;;4885780;29;20230;-30
2023/03/07 04:49:11;;;;;;;11.67;7.17;;;2.50;99.90;;;;;;4917095;29;20207;-30
2023/03/07 04:51:38;;;;;;;11.47;7.30;;;2.50;99.90;;;;;;4916914;29;20245;-30
2023/03/07 04:54:04;;;;;;;14.30;9.57;;;2.50;99.90;;;;;;4916699;29;20182;-30
2023/03/07 04:56:30;;;;;;;16.60;10.70;;;2.50;99.90;;;;;;4916906;29;20195;-30
2023/03/07 04:58:57;;;;;;;11.37;7.17;;;2.50;99.90;;;;;;4916754;29;20183;-30
2023/03/07 05:01:23;;;;;;;13.20;7.47;;;2.50;99.90;;;;;;4901403;29;20210;-29
2023/03/07 05:03:49;;;;;;;10.67;6.83;;;2.50;99.90;;;;;;4900712;29;20194;-29
2023/03/07 05:06:18;;;;;;;11.57;6.70;;;2.50;99.90;;;;;;4916359;29;20206;-29
2023/03/07 05:08:51;;;;;;;10.70;6.80;;;2.50;99.90;;;;;;4916760;29;20206;-30
2023/03/07 05:11:16;;;;;;;14.00;6.87;;;2.50;99.90;;;;;;4916886;29;20194;-30
2023/03/07 05:13:43;;;;;;;14.13;8.27;;;2.50;99.90;;;;;;4909887;29;20179;-30
2023/03/07 05:16:09;;;;;;;14.10;8.80;;;2.40;99.90;;;;;;4916638;29;20201;-31
2023/03/07 05:18:35;;;;;;;13.20;7.90;;;2.40;99.90;;;;;;4916628;29;20189;-30
2023/03/07 05:21:01;;;;;;;12.63;8.07;;;2.40;99.90;;;;;;4916733;29;20182;-30
2023/03/07 05:23:28;;;;;;;10.27;7.57;;;2.40;99.90;;;;;;4900879;29;20675;-30
2023/03/07 05:25:55;;;;;;;12.37;7.47;;;2.40;99.90;;;;;;4900981;29;20209;-31
2023/03/07 05:28:21;;;;;;;11.00;7.17;;;2.30;99.90;;;;;;4910930;29;20294;-31
2023/03/07 05:30:47;;;;;;;11.33;6.93;;;2.30;99.90;;;;;;4882189;29;20223;-31
2023/03/07 05:33:13;;;;;;;9.77;6.93;;;2.30;99.90;;;;;;4900078;29;20186;-30
2023/03/07 05:35:40;;;;;;;11.10;7.20;;;2.30;99.90;;;;;;4916081;29;20207;-31
2023/03/07 05:38:07;;;;;;;10.13;6.83;;;2.30;99.90;;;;;;4916415;29;20189;-30
2023/03/07 05:40:34;;;;;;;11.20;7.20;;;2.30;99.90;;;;;;4916288;29;20182;-30
2023/03/07 05:43:00;;;;;;;10.03;6.33;;;2.30;99.90;;;;;;4926783;29;20193;-31
2023/03/07 05:45:25;;;;;;;10.30;6.83;;;2.30;99.90;;;;;;4915223;29;20182;-30
2023/03/07 05:47:51;;;;;;;10.03;6.67;;;2.30;99.90;;;;;;4898012;29;20200;-30
2023/03/07 05:50:19;;;;;;;12.13;6.80;;;2.30;99.90;;;;;;4913848;29;20188;-30
2023/03/07 05:52:45;;;;;;;10.30;6.73;;;2.20;99.90;;;;;;4913953;29;20269;-31
2023/03/07 05:55:11;;;;;;;12.57;7.30;;;2.20;99.90;;;;;;4897971;29;20274;-31
2023/03/07 05:57:37;;;;;;;12.03;6.70;;;2.30;99.90;;;;;;4897934;29;20177;-31
2023/03/07 06:00:05;;;;;;;10.87;6.73;;;2.20;99.90;;;;;;4897755;29;20189;-30
2023/03/07 06:02:40;;;;;;;12.73;6.87;;;2.20;99.90;;;;;;4913796;29;20194;-31
2023/03/07 06:05:08;;;;;;;11.97;7.37;;;2.10;99.90;;;;;;4882847;29;20197;-30
2023/03/07 06:07:34;;;;;;;11.00;7.17;;;2.10;99.90;;;;;;4915328;29;20214;-30
2023/03/07 06:10:00;;;;;;;11.80;7.60;;;2.20;99.90;;;;;;4897861;29;20229;-30
2023/03/07 06:12:26;;;;;;;11.33;7.23;;;2.10;99.90;;;;;;4913256;29;20201;-31
2023/03/07 06:14:51;;;;;;;13.17;6.90;;;2.10;99.90;;;;;;4915257;29;20231;-29
2023/03/07 06:17:17;;;;;;;8.87;6.43;;;2.10;99.90;;;;;;4892195;29;20258;-29
2023/03/07 06:19:43;;;;;;;11.37;6.73;;;2.10;99.90;;;;;;4911038;29;20193;-29
2023/03/07 06:22:09;;;;;;;11.40;6.87;;;2.20;99.90;;;;;;4922521;29;20186;-30
2023/03/07 06:24:35;;;;;;;11.17;7.23;;;2.20;99.90;;;;;;4905451;29;20178;-30
2023/03/07 06:27:01;;;;;;;10.63;6.97;;;2.20;99.90;;;;;;4881917;29;20229;-29
2023/03/07 06:29:27;;;;;;;10.13;6.93;;;2.20;99.90;;;;;;4913005;29;20202;-30
2023/03/07 06:31:53;;;;;;;13.43;7.03;;;2.30;99.90;;;;;;4898829;29;20181;-30
2023/03/07 06:34:19;;;;;;;15.67;7.43;;;2.30;99.90;;;;;;4897473;29;20171;-30
2023/03/07 06:36:47;;;;;;;13.90;7.93;;;2.40;99.90;;;;;;4895981;29;20198;-30
2023/03/07 06:39:19;;;;;;;13.60;8.03;;;2.40;99.90;;;;;;4911355;29;20174;-29
2023/03/07 06:41:47;;;;;;;12.33;7.20;;;2.40;99.90;;;;;;4894454;29;20683;-29
2023/03/07 06:44:15;;;;;;;12.70;7.33;;;2.50;99.90;;;;;;4907409;29;20206;-30
2023/03/07 06:46:42;;;;;;;12.07;6.90;;;2.50;99.90;;;;;;4883860;29;20203;-29
2023/03/07 06:49:12;;;;;;;11.80;7.10;;;2.60;99.90;;;;;;4897041;29;20257;-29
2023/03/07 06:51:38;;;;;;;13.33;7.47;;;2.70;99.90;;;;;;4907178;29;20183;-29
2023/03/07 06:54:06;;;;;;;10.87;7.30;;;2.70;99.90;;;;;;4909678;29;20253;-30
2023/03/07 06:56:34;;;;;;;11.20;7.50;;;2.80;99.90;;;;;;4886307;29;20206;-30
2023/03/07 06:59:00;;;;;;;11.73;7.20;;;2.80;99.90;;;;;;4890141;29;20193;-30
2023/03/07 07:01:27;;;;;;;15.80;8.53;;;2.90;99.90;;;;;;4897325;29;20182;-30
2023/03/07 07:03:55;;;;;;;11.50;7.53;;;2.90;99.90;;;;;;4913892;29;20269;-30
2023/03/07 07:06:21;;;;;;;11.17;7.30;;;3.00;99.90;;;;;;4916650;29;20245;-30
2023/03/07 07:08:48;;;;;;;11.83;7.03;;;3.10;99.90;;;;;;4901098;29;20206;-30
2023/03/07 07:11:14;;;;;;;14.57;7.07;;;3.10;99.90;;;;;;4920648;29;20185;-30
2023/03/07 07:13:40;;;;;;;12.00;7.57;;;3.20;99.90;;;;;;4898110;29;20183;-30
2023/03/07 07:16:08;;;;;;;10.63;7.10;;;3.20;99.90;;;;;;4886750;29;20222;-30
2023/03/07 07:18:36;;;;;;;10.07;6.37;;;3.30;99.90;;;;;;4921332;29;20206;-30
2023/03/07 07:21:04;;;;;;;11.13;7.20;;;3.40;99.90;;;;;;4886199;29;20182;-30
2023/03/07 07:23:31;;;;;;;14.27;7.37;;;3.40;99.90;;;;;;4891490;29;20265;-30
2023/03/07 07:25:58;;;;;;;12.13;7.13;;;3.50;99.90;;;;;;4919906;29;20214;-30
2023/03/07 07:28:24;;;;;;;13.77;7.87;;;3.50;99.90;;;;;;4875823;29;20214;-30
2023/03/07 07:30:50;;;;;;;11.97;7.23;;;3.60;99.90;;;;;;4878961;29;20273;-30
2023/03/07 07:33:16;;;;;;;11.83;7.10;;;3.60;99.90;;;;;;4883158;29;20876;-30
2023/03/07 07:35:46;;;;;;;10.93;7.20;;;3.70;99.90;;;;;;4883660;29;20210;-31
2023/03/07 07:38:13;;;;;;;12.37;7.03;;;3.80;99.90;;;;;;4900938;29;20238;-30
2023/03/07 07:40:39;;;;;;;11.60;7.30;;;3.80;99.90;;;;;;4898559;29;20202;-30
2023/03/07 07:43:05;;;;;;;13.20;7.27;;;3.90;99.90;;;;;;4892203;29;20195;-30
2023/03/07 07:45:37;;;;;;;11.53;7.10;;;3.90;99.90;;;;;;4900060;29;20194;-31
2023/03/07 07:48:05;;;;;;;11.90;7.17;;;3.90;99.90;;;;;;4913606;29;20266;-30
2023/03/07 07:50:31;;;;;;;10.93;8.10;;;4.00;99.90;;;;;;4896405;29;20330;-30
2023/03/07 07:52:57;;;;;;;11.53;8.37;;;4.00;99.90;;;;;;4899730;29;20186;-30
2023/03/07 07:55:27;;;;;;;12.87;8.70;;;4.00;99.90;;;;;;4918202;29;20182;-30
2023/03/07 07:57:53;;;;;;;15.10;9.60;;;4.10;99.90;;;;;;4917761;29;20179;-30
2023/03/07 08:00:20;;;;;;;12.93;8.10;;;4.10;99.90;;;;;;4915964;29;20218;-30
2023/03/07 08:02:50;;;;;;;13.90;7.57;;;4.20;99.90;;;;;;4896749;29;20296;-30
2023/03/07 08:05:18;;;;;;;11.53;7.47;;;4.30;99.90;;;;;;4897065;29;20175;-31
2023/03/07 08:07:44;;;;;;;11.43;7.10;;;4.30;99.90;;;;;;4886730;29;20209;-31
2023/03/07 08:10:14;;;;;;;12.50;8.03;;;4.30;99.90;;;;;;4919201;29;20218;-30
2023/03/07 08:12:47;;;;;;;12.93;7.60;;;4.30;99.90;;;;;;4912342;29;20194;-30
2023/03/07 08:15:15;;;;;;;14.03;7.53;;;4.40;99.90;;;;;;4915601;29;20182;-30
2023/03/07 08:17:42;;;;;;;12.80;6.90;;;4.50;99.90;;;;;;4896547;29;20171;-30
2023/03/07 08:20:09;;;;;;;10.80;6.80;;;4.60;99.90;;;;;;4894844;29;20332;-30
2023/03/07 08:22:38;;;;;;;10.90;6.73;;;4.70;99.90;;;;;;4916436;29;20179;-31
2023/03/07 08:25:06;;;;;;;8.43;6.37;;;4.80;99.90;;;;;;4916509;29;20210;-30
2023/03/07 08:27:32;;;;;;;11.67;7.07;;;4.80;99.90;;;;;;4915517;29;20210;-30
2023/03/07 08:30:00;;;;;;;25.37;7.67;;;4.90;99.90;;;;;;4930930;29;20266;-30
2023/03/07 08:32:27;;;;;;;9.80;6.40;;;4.80;99.90;;;;;;4916197;29;20200;-30
2023/03/07 08:34:52;;;;;;;8.83;6.30;;;4.90;99.90;;;;;;4896741;29;20175;-30
2023/03/07 08:37:18;;;;;;;9.90;6.87;;;4.80;99.90;;;;;;4912319;29;20202;-30
2023/03/07 08:39:44;;;;;;;10.83;7.17;;;4.90;99.90;;;;;;4916199;29;20207;-30
2023/03/07 08:42:10;;;;;;;11.93;7.50;;;4.90;99.90;;;;;;4895047;29;20187;-30
2023/03/07 08:44:35;;;;;;;10.50;7.00;;;4.90;99.90;;;;;;4912279;29;20269;-30
2023/03/07 08:47:01;;;;;;;10.00;6.53;;;4.90;99.90;;;;;;4916680;29;20218;-30
2023/03/07 08:49:27;;;;;;;10.63;7.17;;;4.80;99.90;;;;;;4898909;29;20253;-30
2023/03/07 08:51:53;;;;;;;9.33;6.77;;;4.80;99.90;;;;;;4914391;29;20198;-30
2023/03/07 08:54:19;;;;;;;12.73;6.97;;;4.80;99.90;;;;;;4901231;29;20183;-30
2023/03/07 08:56:44;;;;;;;11.50;6.50;;;4.80;99.90;;;;;;4915983;29;20203;-30
2023/03/07 08:59:10;;;;;;;12.03;7.03;;;4.80;99.90;;;;;;4899686;29;20242;-30
2023/03/07 09:01:36;;;;;;;12.80;7.60;;;4.80;99.90;;;;;;4901256;29;20255;-30
2023/03/07 09:04:03;;;;;;;12.67;8.10;;;4.80;99.90;;;;;;4894502;29;20187;-31
2023/03/07 09:06:29;;;;;;;11.37;7.30;;;4.90;99.90;;;;;;4910511;29;20245;-30
2023/03/07 09:08:55;;;;;;;11.07;7.30;;;4.80;99.90;;;;;;4898247;29;20213;-30
2023/03/07 09:11:22;;;;;;;12.33;7.00;;;4.80;99.90;;;;;;4912494;29;20184;-30
2023/03/07 09:13:48;;;;;;;10.97;7.00;;;4.90;99.90;;;;;;4893155;29;20215;-30
2023/03/07 09:16:14;;;;;;;10.83;7.17;;;4.90;99.90;;;;;;4898587;29;20206;-29
2023/03/07 09:18:39;;;;;;;8.87;6.23;;;4.80;99.90;;;;;;4915679;29;20281;-30
2023/03/07 09:21:05;;;;;;;11.87;6.93;;;4.80;99.90;;;;;;4915167;29;20190;-30
2023/03/07 09:23:32;;;;;;;9.77;6.60;;;4.80;99.90;;;;;;4894973;29;20188;-30
2023/03/07 09:26:01;;;;;;;10.50;7.10;;;4.90;99.90;;;;;;4904384;29;20238;-31
2023/03/07 09:28:27;;;;;;;8.60;5.87;;;5.00;99.90;;;;;;4915480;29;20191;-30
2023/03/07 09:30:53;;;;;;;9.80;6.27;;;5.20;99.90;;;;;;4911227;29;20201;-30
2023/03/07 09:33:19;;;;;;;9.73;6.47;;;5.30;99.90;;;;;;4915783;29;20265;-30
2023/03/07 09:35:45;;;;;;;8.83;5.73;;;5.50;99.90;;;;;;4903798;29;20310;-30
2023/03/07 09:38:12;;;;;;;8.30;5.93;;;5.50;99.90;;;;;;4914828;29;20179;-30
2023/03/07 09:40:38;;;;;;;9.67;6.30;;;5.40;99.90;;;;;;4914670;29;20215;-30
2023/03/07 09:43:24;;;;;;;13.93;7.10;;;5.40;99.90;;;;;;4894768;29;20209;-31
2023/03/07 09:46:17;;;;;;;8.63;5.83;;;5.50;99.90;;;;;;4899042;29;20561;-30
2023/03/07 09:48:46;;;;;;;9.47;5.70;;;5.40;99.90;;;;;;4896966;29;20211;-31
2023/03/07 09:51:22;;;;;;;10.57;6.70;;;5.40;99.90;;;;;;4880859;29;20185;-31
2023/03/07 09:54:12;;;;;;;9.90;5.77;;;5.40;99.90;;;;;;4902772;29;20220;-30
2023/03/07 09:56:44;;;;;;;10.40;6.50;;;5.40;99.90;;;;;;4915374;29;20563;-30
2023/03/07 09:59:28;;;;;;;9.33;5.90;;;5.30;99.90;;;;;;4896673;29;20189;-30
2023/03/07 10:02:20;;;;;;;9.43;5.90;;;5.30;99.90;;;;;;4912844;29;20203;-30
2023/03/07 10:05:03;;;;;;;10.53;6.77;;;5.40;99.90;;;;;;4909812;29;20226;-31
2023/03/07 10:07:30;;;;;;;7.70;5.47;;;5.30;99.90;;;;;;4913068;29;20737;-30
2023/03/07 10:10:03;;;;;;;9.87;6.13;;;5.30;99.90;;;;;;4914183;29;20199;-30
2023/03/07 10:13:06;;;;;;;9.20;5.67;;;5.20;99.90;;;;;;4913598;29;20195;-30
2023/03/07 10:15:49;;;;;;;9.67;5.57;;;5.20;99.90;;;;;;4894866;29;20195;-30
2023/03/07 10:18:32;;;;;;;12.57;6.67;;;5.30;99.90;;;;;;4897536;29;20188;-31
2023/03/07 10:21:16;;;;;;;8.37;5.73;;;5.20;99.90;;;;;;4915414;29;20181;-30
2023/03/07 10:23:57;;;;;;;9.13;6.20;;;5.30;99.90;;;;;;4912442;29;20206;-30
2023/03/07 10:26:31;;;;;;;9.00;5.90;;;5.20;99.90;;;;;;4899453;29;20217;-30
2023/03/07 10:29:00;;;;;;;10.00;6.00;;;5.30;99.90;;;;;;4915065;29;20211;-30
2023/03/07 10:31:38;;;;;;;8.17;5.53;;;5.30;99.90;;;;;;4913194;29;20175;-30
2023/03/07 10:34:26;;;;;;;9.07;5.87;;;5.20;99.90;;;;;;4893053;29;20212;-31
2023/03/07 10:37:20;;;;;;;8.97;5.80;;;5.30;99.90;;;;;;4911905;29;20203;-30
2023/03/07 10:39:52;;;;;;;10.50;6.57;;;5.30;99.90;;;;;;4904167;29;20225;-30
2023/03/07 10:42:23;;;;;;;7.63;5.43;;;5.30;99.90;;;;;;4909181;29;20196;-30
2023/03/07 10:44:50;;;;;;;8.87;6.43;;;5.40;99.90;;;;;;4914325;29;20194;-31
2023/03/07 10:47:24;;;;;;;12.47;6.50;;;5.40;99.90;;;;;;4912239;29;20207;-30
2023/03/07 10:49:55;;;;;;;10.23;6.27;;;5.30;99.90;;;;;;4897736;29;20223;-30
2023/03/07 10:52:36;;;;;;;12.07;6.97;;;5.30;99.90;;;;;;4894739;29;20191;-30
2023/03/07 10:55:35;;;;;;;10.47;5.93;;;5.30;99.90;;;;;;4912780;29;20210;-30
2023/03/07 10:58:34;;;;;;;17.77;8.50;;;5.20;99.90;;;;;;4912126;29;20171;-30
2023/03/07 11:01:00;;;;;;;9.03;6.20;;;5.30;99.90;;;;;;4897018;29;20194;-30
2023/03/07 11:03:28;;;;;;;9.20;6.67;;;5.30;99.90;;;;;;4897389;29;20175;-30
2023/03/07 11:05:54;;;;;;;9.50;6.17;;;5.30;99.90;;;;;;4914255;29;20200;-31
2023/03/07 11:08:23;;;;;;;11.20;6.50;;;5.30;99.90;;;;;;4925863;29;20243;-30
2023/03/07 11:10:49;;;;;;;10.57;6.53;;;5.20;99.90;;;;;;4911230;29;20201;-30
2023/03/07 11:13:20;;;;;;;10.80;6.97;;;5.20;99.90;;;;;;4878544;29;20564;-30
2023/03/07 11:15:47;;;;;;;12.77;7.27;;;5.30;99.90;;;;;;4909729;29;20256;-30
2023/03/07 11:18:37;;;;;;;11.93;6.90;;;5.40;99.90;;;;;;4889325;29;20183;-29
2023/03/07 11:21:03;;;;;;;13.27;6.63;;;5.40;99.90;;;;;;4911379;29;20184;-30
2023/03/07 11:23:30;;;;;;;10.07;6.20;;;5.40;99.90;;;;;;4908101;29;20191;-29
2023/03/07 11:26:20;;;;;;;10.33;6.70;;;5.50;99.90;;;;;;4907779;29;20231;-30
2023/03/07 11:28:47;;;;;;;8.53;6.40;;;5.50;99.90;;;;;;4890439;29;20693;-31
2023/03/07 11:31:27;;;;;;;9.60;6.27;;;5.50;99.90;;;;;;4889516;29;20190;-30
2023/03/07 11:34:22;;;;;;;17.47;6.57;;;5.50;99.90;;;;;;4916337;29;20187;-30
2023/03/07 11:36:55;;;;;;;11.87;6.93;;;5.50;99.90;;;;;;4886059;29;20243;-30
2023/03/07 11:39:44;;;;;;;9.40;6.30;;;5.50;99.90;;;;;;4914384;29;20190;-30
2023/03/07 11:42:22;;;;;;;8.53;6.03;;;5.50;99.90;;;;;;4914215;29;20196;-30
2023/03/07 11:44:53;;;;;;;11.20;6.77;;;5.60;99.90;;;;;;4893487;29;20187;-30
2023/03/07 11:47:42;;;;;;;13.33;6.90;;;5.50;99.90;;;;;;4885229;29;20235;-29
2023/03/07 11:50:20;;;;;;;11.93;6.93;;;5.50;99.90;;;;;;4916464;29;20215;-30
2023/03/07 11:53:07;;;;;;;11.10;7.10;;;5.40;99.90;;;;;;4916421;29;20186;-31
2023/03/07 11:56:00;;;;;;;11.77;7.00;;;5.50;99.90;;;;;;4917097;29;20259;-30
2023/03/07 11:59:04;;;;;;;9.73;6.23;;;5.50;99.90;;;;;;4915425;29;20252;-30
2023/03/07 12:01:43;;;;;;;11.33;6.87;;;5.50;99.90;;;;;;4900566;29;20200;-30
2023/03/07 12:04:38;;;;;;;8.43;6.30;;;5.50;99.90;;;;;;4884491;29;20194;-30
2023/03/07 12:07:11;;;;;;;9.80;6.50;;;5.50;99.90;;;;;;4891567;29;20715;-31
2023/03/07 12:09:55;;;;;;;11.53;6.97;;;5.50;99.90;;;;;;4907243;29;20231;-31
2023/03/07 12:12:50;;;;;;;9.40;6.50;;;5.60;99.90;;;;;;4909406;29;20190;-30
2023/03/07 12:15:21;;;;;;;12.13;6.30;;;5.70;99.90;;;;;;4915766;29;20177;-31
2023/03/07 12:18:07;;;;;;;9.73;6.83;;;5.80;99.90;;;;;;4916820;29;20654;-31
2023/03/07 12:20:54;;;;;;;11.90;7.23;;;5.90;99.90;;;;;;4907135;29;20206;-31
2023/03/07 12:23:27;;;;;;;11.10;6.73;;;5.90;99.90;;;;;;4892217;29;20218;-31
2023/03/07 12:26:02;;;;;;;13.83;7.30;;;6.20;99.90;;;;;;4897512;29;20209;-31
2023/03/07 12:28:42;;;;;;;9.57;6.43;;;6.60;99.90;;;;;;4915729;29;20248;-30
2023/03/07 12:31:13;;;;;;;10.63;6.17;;;6.70;99.90;;;;;;4915528;29;20258;-31
2023/03/07 12:33:42;;;;;;;9.03;6.60;;;6.70;99.90;;;;;;4917114;29;20203;-31
2023/03/07 12:36:43;;;;;;;8.57;6.67;;;6.50;99.90;;;;;;4899676;29;20209;-31
2023/03/07 12:39:18;;;;;;;6.37;4.83;;;6.40;99.90;;;;;;4909881;29;20188;-31
2023/03/07 12:42:00;;;;;;;7.77;4.70;;;6.70;99.90;;;;;;4915117;29;20199;-30
2023/03/07 12:44:43;;;;;;;10.10;5.70;;;6.90;99.90;;;;;;4914153;29;20238;-30
2023/03/07 12:47:46;;;;;;;6.80;5.10;;;7.00;99.90;;;;;;4898935;29;20205;-31
2023/03/07 12:50:40;;;;;;;7.20;4.73;;;6.90;99.90;;;;;;4883340;29;20209;-31
2023/03/07 12:53:23;;;;;;;6.63;4.60;;;7.00;99.90;;;;;;4883575;29;20181;-31
2023/03/07 12:56:00;;;;;;;10.20;5.07;;;7.00;99.90;;;;;;4896858;29;20227;-31
2023/03/07 12:58:39;;;;;;;9.10;5.90;;;7.10;99.90;;;;;;4914514;29;20258;-31
2023/03/07 13:01:32;;;;;;;10.43;6.50;;;7.20;99.90;;;;;;4914796;29;20655;-31
2023/03/07 13:04:13;;;;;;;8.67;5.10;;;7.30;99.90;;;;;;4913866;29;20185;-31
2023/03/07 13:06:41;;;;;;;9.33;5.57;;;7.30;99.90;;;;;;4884022;29;20255;-31